HorshamWeather.Com Historical Data
 
Daily Summary for April 18, 2014 Units:  English    Metric   Both
« Previous Day
Next Day »
Daily Weekly Monthly Yearly Custom
  Current: High: Low: Average:
Temperature: 44.8 °F 45.2 °F 36.7 °F 39.3 °F
Dew Point: 31.8 °F 33.7 °F 29.9 °F 31.2 °F
Humidity: 60% 81% 60% 73%
Wind Speed: 2.0mph 5.0mph 0.0mph 1.8mph
Wind Gust: 2.0mph 10.0mph - -
WindENE - - ESE
Pressure: 30.48 in 30.64 in 30.48 in -
Precipitation: 0.00 in      
Historical Graphs
 
 
Tabular Data for April 18, 2014
Time Temperature Dew Point Pressure Wind Wind Speed Wind Gust Humidity Rainfall Rate (Hourly)
00:01 36.7 °F 31.4 °F 30.62 in Calm     81% 0.00 in
00:06 37.1 °F 31.5 °F 30.62 in Calm   1.0 mph 80% 0.00 in
00:11 37.3 °F 31.7 °F 30.62 in Calm     80% 0.00 in
00:16 37.4 °F 31.8 °F 30.62 in Calm     80% 0.00 in
00:21 37.5 °F 31.9 °F 30.61 in Calm   1.0 mph 80% 0.00 in
00:26 37.6 °F 32.0 °F 30.61 in Calm   1.0 mph 80% 0.00 in
00:31 37.7 °F 32.1 °F 30.62 in ESE 1.0 mph 2.0 mph 80% 0.00 in
00:36 37.7 °F 32.1 °F 30.62 in ESE 1.0 mph 2.0 mph 80% 0.00 in
00:41 37.7 °F 31.8 °F 30.62 in Calm   2.0 mph 79% 0.00 in
00:46 37.7 °F 31.8 °F 30.62 in ESE 1.0 mph 1.0 mph 79% 0.00 in
00:51 37.8 °F 31.9 °F 30.62 in Calm   1.0 mph 79% 0.00 in
00:56 37.9 °F 32.0 °F 30.62 in Calm   1.0 mph 79% 0.00 in
01:01 37.9 °F 32.0 °F 30.62 in Calm   1.0 mph 79% 0.00 in
01:06 38.0 °F 32.1 °F 30.63 in Calm     79% 0.00 in
01:11 38.1 °F 32.2 °F 30.64 in SSW 1.0 mph 2.0 mph 79% 0.00 in
01:16 38.1 °F 32.2 °F 30.64 in ESE 2.0 mph 2.0 mph 79% 0.00 in
01:21 38.2 °F 32.0 °F 30.63 in ESE 4.0 mph 7.0 mph 78% 0.00 in
01:26 38.3 °F 31.7 °F 30.62 in ESE 1.0 mph 3.0 mph 77% 0.00 in
01:31 38.4 °F 31.8 °F 30.63 in ESE 1.0 mph 2.0 mph 77% 0.00 in
01:36 38.4 °F 31.8 °F 30.62 in ESE 2.0 mph 3.0 mph 77% 0.00 in
01:41 38.4 °F 31.2 °F 30.62 in East 1.0 mph 2.0 mph 75% 0.00 in
01:46 38.4 °F 31.2 °F 30.62 in Calm   2.0 mph 75% 0.00 in
01:51 38.3 °F 30.8 °F 30.61 in ESE 1.0 mph 3.0 mph 74% 0.00 in
01:56 38.3 °F 31.1 °F 30.60 in Calm   2.0 mph 75% 0.00 in
02:01 38.3 °F 30.8 °F 30.60 in ESE 3.0 mph 3.0 mph 74% 0.00 in
02:06 38.3 °F 30.8 °F 30.60 in Calm   2.0 mph 74% 0.00 in
02:11 38.3 °F 30.8 °F 30.59 in SE 1.0 mph 1.0 mph 74% 0.00 in
02:16 38.2 °F 30.7 °F 30.59 in SSE 2.0 mph 2.0 mph 74% 0.00 in
02:21 38.2 °F 30.3 °F 30.59 in ESE 3.0 mph 4.0 mph 73% 0.00 in
02:26 38.2 °F 30.3 °F 30.58 in SE 4.0 mph 4.0 mph 73% 0.00 in
02:31 38.2 °F 30.7 °F 30.58 in ESE 2.0 mph 3.0 mph 74% 0.00 in
02:36 38.2 °F 30.7 °F 30.58 in Calm   1.0 mph 74% 0.00 in
02:41 38.2 °F 30.3 °F 30.58 in ESE 3.0 mph 3.0 mph 73% 0.00 in
02:46 38.2 °F 30.3 °F 30.58 in ESE 1.0 mph 2.0 mph 73% 0.00 in
02:51 38.1 °F 30.2 °F 30.58 in NE 2.0 mph 2.0 mph 73% 0.00 in
02:56 38.1 °F 30.2 °F 30.58 in ESE 1.0 mph 1.0 mph 73% 0.00 in
03:01 38.0 °F 30.1 °F 30.57 in East 2.0 mph 4.0 mph 73% 0.00 in
03:06 38.0 °F 30.5 °F 30.57 in Calm   3.0 mph 74% 0.00 in
03:11 37.9 °F 30.0 °F 30.56 in East 1.0 mph 2.0 mph 73% 0.00 in
03:16 37.9 °F 30.0 °F 30.55 in East 2.0 mph 6.0 mph 73% 0.00 in
03:21 37.8 °F 29.9 °F 30.55 in ESE 1.0 mph 2.0 mph 73% 0.00 in
03:26 37.8 °F 30.3 °F 30.55 in Calm   2.0 mph 74% 0.00 in
03:31 37.8 °F 30.3 °F 30.54 in ESE 2.0 mph 3.0 mph 74% 0.00 in
03:36 37.8 °F 30.6 °F 30.54 in Calm   3.0 mph 75% 0.00 in
03:41 37.8 °F 30.3 °F 30.53 in ESE 2.0 mph 4.0 mph 74% 0.00 in
03:46 37.8 °F 30.3 °F 30.52 in ESE 2.0 mph 7.0 mph 74% 0.00 in
03:51 37.7 °F 30.2 °F 30.52 in ESE 1.0 mph 2.0 mph 74% 0.00 in
03:56 37.7 °F 30.2 °F 30.52 in ESE 3.0 mph 6.0 mph 74% 0.00 in
04:01 37.7 °F 30.2 °F 30.52 in ESE 2.0 mph 10.0 mph 74% 0.00 in
04:06 37.7 °F 30.5 °F 30.52 in Calm   1.0 mph 75% 0.00 in
04:11 37.7 °F 30.5 °F 30.52 in NE 2.0 mph 4.0 mph 75% 0.00 in
04:16 37.7 °F 30.2 °F 30.52 in ESE 1.0 mph 3.0 mph 74% 0.00 in
04:21 37.7 °F 30.5 °F 30.52 in ESE 1.0 mph 3.0 mph 75% 0.00 in
04:26 37.7 °F 30.2 °F 30.52 in ESE 3.0 mph 4.0 mph 74% 0.00 in
04:31 37.7 °F 30.2 °F 30.52 in SE 3.0 mph 6.0 mph 74% 0.00 in
04:36 37.7 °F 30.2 °F 30.51 in SE 2.0 mph 2.0 mph 74% 0.00 in
04:41 37.7 °F 30.2 °F 30.51 in East 3.0 mph 6.0 mph 74% 0.00 in
04:46 37.8 °F 30.3 °F 30.52 in Calm   4.0 mph 74% 0.00 in
04:51 37.8 °F 30.6 °F 30.52 in East 2.0 mph 2.0 mph 75% 0.00 in
04:56 37.8 °F 30.3 °F 30.52 in ESE 2.0 mph 3.0 mph 74% 0.00 in
05:01 37.7 °F 30.2 °F 30.52 in ESE 4.0 mph 4.0 mph 74% 0.00 in
05:06 37.7 °F 30.2 °F 30.52 in ESE 1.0 mph 1.0 mph 74% 0.00 in
05:11 37.7 °F 30.2 °F 30.52 in ESE 1.0 mph 3.0 mph 74% 0.00 in
05:16 37.8 °F 30.6 °F 30.52 in Calm   1.0 mph 75% 0.00 in
05:21 37.8 °F 30.6 °F 30.52 in Calm   1.0 mph 75% 0.00 in
05:26 37.8 °F 30.6 °F 30.52 in Calm   1.0 mph 75% 0.00 in
05:31 37.8 °F 30.6 °F 30.52 in Calm     75% 0.00 in
05:36 37.8 °F 30.6 °F 30.51 in Calm   1.0 mph 75% 0.00 in
05:41 37.8 °F 30.6 °F 30.51 in Calm   1.0 mph 75% 0.00 in
05:46 37.8 °F 30.9 °F 30.52 in Calm   2.0 mph 76% 0.00 in
05:51 37.9 °F 30.7 °F 30.52 in Calm   1.0 mph 75% 0.00 in
05:56 37.8 °F 30.3 °F 30.51 in Calm   1.0 mph 74% 0.00 in
06:01 37.8 °F 30.3 °F 30.51 in East 1.0 mph 2.0 mph 74% 0.00 in
06:06 37.7 °F 30.2 °F 30.51 in Calm   2.0 mph 74% 0.00 in
06:11 37.7 °F 30.2 °F 30.51 in ESE 1.0 mph 1.0 mph 74% 0.00 in
06:16 37.7 °F 30.2 °F 30.52 in ESE 1.0 mph 2.0 mph 74% 0.00 in
06:21 37.7 °F 30.2 °F 30.52 in Calm   1.0 mph 74% 0.00 in
06:26 37.7 °F 30.2 °F 30.52 in Calm   1.0 mph 74% 0.00 in
06:31 37.8 °F 30.6 °F 30.52 in ENE 1.0 mph 3.0 mph 75% 0.00 in
06:36 37.8 °F 30.6 °F 30.52 in SE 1.0 mph 1.0 mph 75% 0.00 in
06:41 37.8 °F 30.6 °F 30.53 in SSE 1.0 mph 3.0 mph 75% 0.00 in
06:46 37.9 °F 31.0 °F 30.53 in South 1.0 mph 1.0 mph 76% 0.00 in
06:51 37.9 °F 30.7 °F 30.54 in Calm   2.0 mph 75% 0.00 in
06:56 37.9 °F 30.7 °F 30.54 in Calm   1.0 mph 75% 0.00 in
07:01 38.0 °F 30.8 °F 30.54 in NNE 2.0 mph 2.0 mph 75% 0.00 in
07:06 38.0 °F 30.5 °F 30.54 in Calm   1.0 mph 74% 0.00 in
07:11 38.0 °F 30.8 °F 30.55 in Calm   1.0 mph 75% 0.00 in
07:16 38.1 °F 30.9 °F 30.55 in Calm   1.0 mph 75% 0.00 in
07:21 38.1 °F 30.6 °F 30.55 in NE 1.0 mph 1.0 mph 74% 0.00 in
07:26 38.2 °F 30.7 °F 30.55 in Calm   1.0 mph 74% 0.00 in
07:31 38.2 °F 31.0 °F 30.55 in Calm     75% 0.00 in
07:36 38.4 °F 30.9 °F 30.55 in Calm   2.0 mph 74% 0.00 in
07:41 38.5 °F 31.0 °F 30.55 in ESE 1.0 mph 2.0 mph 74% 0.00 in
07:46 38.5 °F 31.0 °F 30.55 in East 1.0 mph 2.0 mph 74% 0.00 in
07:51 38.6 °F 31.0 °F 30.55 in East 1.0 mph 1.0 mph 74% 0.00 in
07:56 38.6 °F 31.0 °F 30.55 in ENE 1.0 mph 1.0 mph 74% 0.00 in
08:01 38.8 °F 31.2 °F 30.55 in ESE 1.0 mph 2.0 mph 74% 0.00 in
08:06 38.9 °F 31.0 °F 30.55 in ESE 1.0 mph 2.0 mph 73% 0.00 in
08:11 38.9 °F 30.7 °F 30.54 in East 3.0 mph 3.0 mph 72% 0.00 in
08:16 39.0 °F 31.1 °F 30.54 in ESE 4.0 mph 4.0 mph 73% 0.00 in
08:21 39.3 °F 31.7 °F 30.54 in SE 3.0 mph 3.0 mph 74% 0.00 in
08:26 39.7 °F 31.8 °F 30.54 in South 1.0 mph 3.0 mph 73% 0.00 in
08:31 39.9 °F 32.0 °F 30.54 in Calm   2.0 mph 73% 0.00 in
08:36 39.9 °F 31.3 °F 30.54 in SSE 5.0 mph 5.0 mph 71% 0.00 in
08:41 39.8 °F 31.5 °F 30.54 in ESE 1.0 mph 2.0 mph 72% 0.00 in
08:46 39.9 °F 30.9 °F 30.53 in Calm   3.0 mph 70% 0.00 in
08:51 39.8 °F 30.8 °F 30.54 in NE 2.0 mph 4.0 mph 70% 0.00 in
08:56 40.0 °F 31.7 °F 30.54 in NE 1.0 mph 1.0 mph 72% 0.00 in
09:01 40.3 °F 31.7 °F 30.53 in East 1.0 mph 2.0 mph 71% 0.00 in
09:06 40.5 °F 31.5 °F 30.53 in ESE 1.0 mph 3.0 mph 70% 0.00 in
09:11 40.8 °F 31.4 °F 30.53 in ESE 2.0 mph 3.0 mph 69% 0.00 in
09:16 40.9 °F 31.9 °F 30.53 in SSE 4.0 mph 4.0 mph 70% 0.00 in
09:21 41.1 °F 32.1 °F 30.53 in East 3.0 mph 4.0 mph 70% 0.00 in
09:26 41.3 °F 31.9 °F 30.52 in ENE 1.0 mph 2.0 mph 69% 0.00 in
09:31 41.3 °F 32.3 °F 30.53 in NNE 1.0 mph 2.0 mph 70% 0.00 in
09:36 41.2 °F 31.5 °F 30.53 in East 1.0 mph 4.0 mph 68% 0.00 in
09:41 41.0 °F 31.6 °F 30.53 in ESE 3.0 mph 3.0 mph 69% 0.00 in
09:46 41.1 °F 32.4 °F 30.52 in ESE 2.0 mph 2.0 mph 71% 0.00 in
09:51 41.1 °F 31.7 °F 30.52 in ESE 2.0 mph 3.0 mph 69% 0.00 in
09:56 41.2 °F 32.9 °F 30.52 in NE 3.0 mph 3.0 mph 72% 0.00 in
10:01 41.4 °F 32.0 °F 30.52 in SSE 1.0 mph 3.0 mph 69% 0.00 in
10:06 41.5 °F 31.7 °F 30.52 in SE 1.0 mph 1.0 mph 68% 0.00 in
10:11 41.5 °F 31.7 °F 30.52 in East 3.0 mph 8.0 mph 68% 0.00 in
10:16 41.4 °F 30.9 °F 30.51 in Calm   2.0 mph 66% 0.00 in
10:21 41.7 °F 32.3 °F 30.51 in East 1.0 mph 1.0 mph 69% 0.00 in
10:26 42.1 °F 32.0 °F 30.51 in ESE 3.0 mph 6.0 mph 67% 0.00 in
10:31 42.7 °F 32.5 °F 30.51 in ESE 1.0 mph 5.0 mph 67% 0.00 in
10:36 43.2 °F 33.0 °F 30.50 in East 4.0 mph 4.0 mph 67% 0.00 in
10:41 43.3 °F 32.3 °F 30.50 in East 1.0 mph 1.0 mph 65% 0.00 in
10:46 43.4 °F 32.4 °F 30.50 in ENE 3.0 mph 5.0 mph 65% 0.00 in
10:51 43.3 °F 31.6 °F 30.50 in SW 1.0 mph 2.0 mph 63% 0.00 in
10:56 43.6 °F 32.2 °F 30.50 in Calm   2.0 mph 64% 0.00 in
11:01 43.7 °F 32.0 °F 30.50 in ESE 2.0 mph 2.0 mph 63% 0.00 in
11:06 43.7 °F 32.7 °F 30.50 in East 2.0 mph 3.0 mph 65% 0.00 in
11:11 44.1 °F 32.7 °F 30.49 in North 1.0 mph 3.0 mph 64% 0.00 in
11:16 44.4 °F 32.6 °F 30.49 in SE 2.0 mph 4.0 mph 63% 0.00 in
11:21 44.5 °F 32.3 °F 30.49 in East 3.0 mph 8.0 mph 62% 0.00 in
11:26 44.1 °F 32.3 °F 30.49 in SSE 1.0 mph 3.0 mph 63% 0.00 in
11:31 43.9 °F 32.5 °F 30.49 in SE 3.0 mph 3.0 mph 64% 0.00 in
11:36 43.8 °F 31.6 °F 30.50 in WSW 1.0 mph 3.0 mph 62% 0.00 in
11:41 44.0 °F 32.6 °F 30.50 in SSE 1.0 mph 2.0 mph 64% 0.00 in
11:46 44.4 °F 33.4 °F 30.49 in South 4.0 mph 4.0 mph 65% 0.00 in
11:51 45.1 °F 33.7 °F 30.49 in SSW 1.0 mph 4.0 mph 64% 0.00 in
11:56 45.2 °F 32.6 °F 30.49 in ESE 3.0 mph 3.0 mph 61% 0.00 in
12:01 45.0 °F 32.0 °F 30.49 in ESE 3.0 mph 7.0 mph 60% 0.00 in
12:06 44.7 °F 32.5 °F 30.48 in South 1.0 mph 2.0 mph 62% 0.00 in
12:11 44.8 °F 31.8 °F 30.48 in ENE 2.0 mph 2.0 mph 60% 0.00 in
HorshamWeather.Com
Compliments of Weather Underground